Terminal Aerodrome Forecast
Issued by NWS

Home | Current Version | Previous Version | Graphics & Text | Print | Product List | Glossary On
Versions: 1 2 3 4 5 6 7 8 9 10 11 12 13 14 15 16 17 18 19 20 21 22 23 24 25 26
000
FTUS43 KGRB 221700
TAFATW
TAF
KATW 221730Z 2218/2318 09006KT 5SM BR OVC012
     FM222000 09004KT P6SM BKN020 BKN040
     FM230300 VRB03KT 4SM BR BKN012
     FM230600 VRB03KT 2SM BR OVC004
      TEMPO 2309/2313 1SM BR OVC003
     FM231500 08006KT 5SM BR BKN008=

USA.gov is the U.S. government's official web portal to all federal, state and local government web resources and services.